Time;durP1;ratioP1;P1;durP2;ratioP2;P2;SDS_P1;SDS_P2;PMS_P1;PMS_P2;Temp;Humidity;BMP_temperature;BMP_pressure;BME280_temperature;BME280_humidity;BME280_pressure;Samples;Min_cycle;Max_cycle;Signal;HPM_P1;HPM_P2
2021/10/15 00:02:05;;;;;;;28.17;19.05;;;13.40;99.90;;;;;;4856273;29;20103;-87
2021/10/15 00:04:31;;;;;;;28.58;18.10;;;13.40;99.90;;;;;;4841090;29;20133;-84
2021/10/15 00:06:56;;;;;;;25.95;17.35;;;13.40;99.90;;;;;;4826593;29;20049;-84
2021/10/15 00:09:22;;;;;;;26.17;18.08;;;13.40;99.90;;;;;;4836692;29;20049;-85
2021/10/15 00:11:48;;;;;;;26.90;17.67;;;13.40;99.90;;;;;;4854646;29;20041;-84
2021/10/15 00:14:17;;;;;;;26.08;18.20;;;13.40;99.90;;;;;;4850608;29;20041;-84
2021/10/15 00:16:43;;;;;;;31.58;19.00;;;13.40;99.90;;;;;;4865324;29;20258;-86
2021/10/15 00:19:08;;;;;;;27.58;17.88;;;13.40;99.90;;;;;;4861830;29;21598;-83
2021/10/15 00:21:40;;;;;;;26.05;17.73;;;13.40;99.90;;;;;;4859225;29;20044;-84
2021/10/15 00:24:06;;;;;;;24.77;17.92;;;13.40;99.90;;;;;;4857482;29;20108;-84
2021/10/15 00:26:31;;;;;;;23.58;17.40;;;13.50;99.90;;;;;;4829271;29;20033;-83
2021/10/15 00:28:57;;;;;;;30.35;19.10;;;13.40;99.90;;;;;;4841524;29;20039;-83
2021/10/15 00:31:23;;;;;;;26.50;18.40;;;13.50;99.90;;;;;;4854976;29;20049;-84
2021/10/15 00:33:52;;;;;;;28.63;17.65;;;13.50;99.90;;;;;;4856566;29;20120;-85
2021/10/15 00:36:17;;;;;;;28.67;18.30;;;13.50;99.90;;;;;;4854675;29;20041;-84
2021/10/15 00:38:44;;;;;;;24.27;16.45;;;13.50;99.90;;;;;;4858629;29;20048;-84
2021/10/15 00:41:13;;;;;;;24.13;15.15;;;13.50;99.90;;;;;;4853181;29;20049;-82
2021/10/15 00:44:26;;;;;;;24.38;16.88;;;13.50;99.90;;;;;;4871817;29;20526;-87
2021/10/15 00:46:52;;;;;;;;;;;13.50;99.90;;;;;;4852126;29;20072;-85
2021/10/15 00:49:18;;;;;;;23.50;16.15;;;13.50;99.90;;;;;;4870073;29;19959;-85
2021/10/15 00:51:45;;;;;;;26.10;17.27;;;13.50;99.90;;;;;;4848418;29;20114;-84
2021/10/15 00:54:18;;;;;;;26.63;16.60;;;13.50;99.90;;;;;;4864649;29;20052;-84
2021/10/15 00:57:15;;;;;;;29.67;16.67;;;13.50;99.90;;;;;;4861728;29;20520;-85
2021/10/15 01:00:20;;;;;;;25.88;16.23;;;13.50;99.90;;;;;;4880119;29;20049;-84
2021/10/15 01:03:29;;;;;;;21.30;15.63;;;13.50;99.90;;;;;;4879216;29;20047;-84
2021/10/15 01:06:40;;;;;;;24.70;16.67;;;13.50;99.90;;;;;;4868497;29;20746;-85
2021/10/15 01:09:07;;;;;;;31.58;17.45;;;13.50;99.90;;;;;;4868037;29;20508;-83
2021/10/15 01:11:39;;;;;;;26.40;18.67;;;13.50;99.90;;;;;;4862580;29;20164;-83
2021/10/15 01:14:09;;;;;;;23.85;18.42;;;13.50;99.90;;;;;;4838839;29;20048;-85
2021/10/15 01:16:37;;;;;;;29.70;18.65;;;13.50;99.90;;;;;;4842276;29;20048;-85
2021/10/15 01:19:19;;;;;;;28.45;19.05;;;13.50;99.90;;;;;;4833972;29;20140;-84
2021/10/15 01:21:49;;;;;;;29.63;20.42;;;13.50;99.90;;;;;;4856848;29;20505;-84
2021/10/15 01:24:17;;;;;;;27.58;20.58;;;13.50;99.90;;;;;;4846144;29;20405;-85
2021/10/15 01:26:51;;;;;;;30.67;20.63;;;13.50;99.90;;;;;;4846975;29;20041;-85
2021/10/15 01:29:20;;;;;;;32.67;21.17;;;13.40;99.90;;;;;;4851102;29;20072;-84
2021/10/15 01:31:46;;;;;;;31.70;22.15;;;13.40;99.90;;;;;;4864754;29;20039;-84
2021/10/15 01:34:12;;;;;;;36.60;22.95;;;13.40;99.90;;;;;;4859708;29;20037;-86
2021/10/15 01:36:47;;;;;;;35.03;22.05;;;13.40;99.90;;;;;;4843759;29;20062;-85
2021/10/15 01:39:16;;;;;;;37.55;23.52;;;13.40;99.90;;;;;;4841768;29;20481;-84
2021/10/15 01:41:45;;;;;;;34.50;23.52;;;13.30;99.90;;;;;;4869060;29;20059;-83
2021/10/15 01:44:20;;;;;;;41.15;25.45;;;13.40;99.90;;;;;;4871567;29;20036;-85
2021/10/15 01:46:46;;;;;;;33.10;25.58;;;13.30;99.90;;;;;;4872704;29;20036;-85
2021/10/15 01:49:12;;;;;;;36.05;25.17;;;13.30;99.90;;;;;;4846684;29;20157;-86
2021/10/15 01:51:41;;;;;;;35.00;26.20;;;13.30;99.90;;;;;;4836705;29;20475;-85
2021/10/15 01:54:07;;;;;;;37.55;27.95;;;13.30;99.90;;;;;;4856266;29;20049;-83
2021/10/15 01:56:37;;;;;;;37.38;28.35;;;13.20;99.90;;;;;;4836316;29;20064;-85
2021/10/15 01:59:04;;;;;;;39.45;28.20;;;13.20;99.90;;;;;;4841133;29;20078;-84
2021/10/15 02:01:40;;;;;;;42.53;27.30;;;13.20;99.90;;;;;;4841607;29;20068;-84
2021/10/15 02:04:06;;;;;;;33.15;26.52;;;13.20;99.90;;;;;;4843169;29;20487;-85
2021/10/15 02:06:34;;;;;;;38.40;27.00;;;13.20;99.90;;;;;;4819372;29;20053;-85
2021/10/15 02:09:03;;;;;;;37.40;26.98;;;13.20;99.90;;;;;;4869749;29;20689;-83
2021/10/15 02:11:29;;;;;;;34.90;25.17;;;13.20;99.90;;;;;;4840005;29;20263;-85
2021/10/15 02:13:57;;;;;;;37.72;25.35;;;13.20;99.90;;;;;;4855341;29;20607;-83
2021/10/15 02:16:23;;;;;;;38.90;26.70;;;13.20;99.90;;;;;;4857489;29;20729;-84
2021/10/15 02:18:49;;;;;;;40.40;25.40;;;13.20;99.90;;;;;;4829232;29;20069;-84
2021/10/15 02:21:15;;;;;;;32.17;25.23;;;13.20;99.90;;;;;;4854772;29;20068;-85
2021/10/15 02:23:41;;;;;;;34.72;24.05;;;13.30;99.90;;;;;;4860202;29;20076;-84
2021/10/15 02:26:10;;;;;;;36.70;23.95;;;13.30;99.90;;;;;;4857782;29;20048;-85
2021/10/15 02:28:35;;;;;;;35.55;22.65;;;13.30;99.90;;;;;;4846903;29;20064;-85
2021/10/15 02:31:01;;;;;;;29.80;23.10;;;13.30;99.90;;;;;;4843397;29;20076;-85
2021/10/15 02:33:27;;;;;;;31.17;23.00;;;13.30;99.90;;;;;;4854675;29;20477;-85
2021/10/15 02:35:53;;;;;;;31.77;22.20;;;13.30;99.90;;;;;;4859003;29;20057;-86
2021/10/15 02:38:19;;;;;;;32.58;22.15;;;13.30;99.90;;;;;;4840133;29;20048;-84
2021/10/15 02:40:45;;;;;;;31.65;21.23;;;13.30;99.90;;;;;;4829503;29;20040;-87
2021/10/15 02:43:13;;;;;;;32.83;22.27;;;13.30;99.90;;;;;;4840203;29;20049;-85
2021/10/15 02:45:39;;;;;;;29.83;20.75;;;13.40;99.90;;;;;;4847474;29;20091;-85
2021/10/15 02:48:40;;;;;;;29.23;21.75;;;13.30;99.90;;;;;;4858890;29;20074;-85
2021/10/15 02:51:10;;;;;;;32.17;22.08;;;13.40;99.90;;;;;;4853540;29;20075;-85
2021/10/15 02:53:38;;;;;;;33.63;19.38;;;13.40;99.90;;;;;;4859493;29;20036;-84
2021/10/15 02:56:05;;;;;;;29.90;19.33;;;13.40;99.90;;;;;;4844888;29;20049;-84
2021/10/15 02:58:34;;;;;;;33.72;19.85;;;13.40;99.90;;;;;;4868587;29;20599;-84
2021/10/15 03:00:59;;;;;;;31.00;20.58;;;13.40;99.90;;;;;;4860926;29;20044;-83
2021/10/15 03:03:25;;;;;;;35.15;21.20;;;13.40;99.90;;;;;;4870129;29;20064;-84
2021/10/15 03:05:51;;;;;;;31.42;20.65;;;13.50;99.90;;;;;;4862052;29;20079;-86
2021/10/15 03:08:22;;;;;;;31.70;21.73;;;13.40;99.90;;;;;;4853353;29;20045;-85
2021/10/15 03:10:48;;;;;;;31.80;20.92;;;13.50;99.90;;;;;;4868066;29;20216;-83
2021/10/15 03:13:19;;;;;;;31.30;19.80;;;13.50;99.90;;;;;;4852982;29;20053;-84
2021/10/15 03:15:45;;;;;;;34.72;20.13;;;13.50;99.90;;;;;;4856743;29;20188;-86
2021/10/15 03:18:11;;;;;;;32.92;19.15;;;13.50;99.90;;;;;;4869507;29;20048;-83
2021/10/15 03:20:37;;;;;;;27.10;18.33;;;13.50;99.90;;;;;;4849559;29;20040;-83
2021/10/15 03:23:06;;;;;;;30.75;19.05;;;13.50;99.90;;;;;;4846963;29;20052;-84
2021/10/15 03:25:32;;;;;;;35.67;19.88;;;13.50;99.90;;;;;;4858199;29;20048;-85
2021/10/15 03:27:58;;;;;;;29.98;18.85;;;13.50;99.90;;;;;;4826497;29;20045;-84
2021/10/15 03:30:24;;;;;;;34.17;19.70;;;13.50;99.90;;;;;;4868294;29;20116;-85
2021/10/15 03:32:50;;;;;;;32.67;18.98;;;13.50;99.90;;;;;;4856664;29;20045;-87
2021/10/15 03:35:20;;;;;;;30.67;18.75;;;13.50;99.90;;;;;;4868401;29;20103;-85
2021/10/15 03:37:45;;;;;;;27.95;18.65;;;13.60;99.90;;;;;;4869816;29;20049;-83
2021/10/15 03:40:12;;;;;;;33.33;18.88;;;13.50;99.90;;;;;;4862556;29;20496;-85
2021/10/15 03:42:38;;;;;;;29.58;18.33;;;13.50;99.90;;;;;;4839627;29;20051;-86
2021/10/15 03:45:06;;;;;;;26.17;19.48;;;13.50;99.90;;;;;;4864372;29;20040;-86
2021/10/15 03:47:32;;;;;;;26.33;17.83;;;13.50;99.90;;;;;;4856996;29;20108;-84
2021/10/15 03:49:58;;;;;;;30.75;18.52;;;13.50;99.90;;;;;;4871974;29;20044;-83
2021/10/15 03:52:24;;;;;;;31.75;18.08;;;13.50;99.90;;;;;;4866262;29;20052;-85
2021/10/15 03:54:50;;;;;;;32.47;18.35;;;13.50;99.90;;;;;;4838209;29;20045;-84
2021/10/15 03:57:15;;;;;;;31.95;17.98;;;13.50;99.90;;;;;;4857189;29;20036;-85
2021/10/15 03:59:44;;;;;;;30.80;17.90;;;13.50;99.90;;;;;;4851341;29;20682;-83
2021/10/15 04:02:10;;;;;;;32.13;17.45;;;13.50;99.90;;;;;;4871259;29;20048;-83
2021/10/15 04:04:36;;;;;;;25.95;17.23;;;13.50;99.90;;;;;;4854478;29;20053;-85
2021/10/15 04:07:02;;;;;;;29.13;15.90;;;13.50;99.90;;;;;;4841470;29;20049;-85
2021/10/15 04:09:27;;;;;;;27.70;15.95;;;13.50;99.90;;;;;;4869388;29;20040;-85
2021/10/15 04:11:53;;;;;;;32.65;16.92;;;13.50;99.90;;;;;;4865176;29;20080;-85
2021/10/15 04:14:28;;;;;;;28.88;16.30;;;13.50;99.90;;;;;;4834812;29;20594;-84
2021/10/15 04:16:54;;;;;;;28.42;15.90;;;13.50;99.90;;;;;;4838854;29;20120;-83
2021/10/15 04:19:22;;;;;;;26.02;15.82;;;13.50;99.90;;;;;;4863788;29;20037;-84
2021/10/15 04:21:48;;;;;;;25.63;15.38;;;13.50;99.90;;;;;;4881931;29;20056;-84
2021/10/15 04:24:17;;;;;;;25.95;15.07;;;13.50;99.90;;;;;;4881100;29;20045;-85
2021/10/15 04:26:46;;;;;;;25.98;14.73;;;13.50;99.90;;;;;;4877287;29;20049;-84
2021/10/15 04:29:11;;;;;;;28.80;16.25;;;13.50;99.90;;;;;;4865650;29;20051;-84
2021/10/15 04:31:37;;;;;;;28.25;14.98;;;13.50;99.90;;;;;;4847011;29;20052;-85
2021/10/15 04:34:03;;;;;;;24.17;13.68;;;13.50;99.90;;;;;;4877332;29;20137;-85
2021/10/15 04:36:32;;;;;;;27.88;14.85;;;13.50;99.90;;;;;;4849312;29;20373;-87
2021/10/15 04:39:04;;;;;;;31.20;13.48;;;13.50;99.90;;;;;;4848238;29;20476;-85
2021/10/15 04:41:33;;;;;;;30.10;13.07;;;13.50;99.90;;;;;;4873014;29;20044;-85
2021/10/15 04:43:59;;;;;;;20.75;12.27;;;13.50;99.90;;;;;;4853248;29;20045;-85
2021/10/15 04:46:27;;;;;;;26.13;12.73;;;13.50;99.90;;;;;;4857880;29;20499;-84
2021/10/15 04:48:53;;;;;;;21.88;11.57;;;13.50;99.90;;;;;;4857813;29;20396;-84
2021/10/15 04:51:19;;;;;;;25.25;11.52;;;13.50;99.90;;;;;;4861354;29;20045;-85
2021/10/15 04:53:44;;;;;;;21.13;10.45;;;13.50;99.90;;;;;;4875575;29;20052;-84
2021/10/15 04:56:10;;;;;;;22.15;11.52;;;13.50;99.90;;;;;;4854900;29;20143;-84
2021/10/15 04:58:38;;;;;;;28.83;11.80;;;13.50;99.90;;;;;;4858620;29;20099;-84
2021/10/15 05:01:07;;;;;;;25.95;11.50;;;13.50;99.90;;;;;;4866497;29;20049;-85
2021/10/15 05:03:33;;;;;;;26.15;12.02;;;13.50;99.90;;;;;;4857813;29;20045;-86
2021/10/15 05:06:17;;;;;;;27.88;12.20;;;13.50;99.90;;;;;;4851629;29;20048;-83
2021/10/15 05:11:29;;;;;;;23.75;12.50;;;13.40;99.90;;;;;;4843529;29;20053;-86
2021/10/15 05:13:56;;;;;;;23.70;11.80;;;13.40;99.90;;;;;;4873203;29;20105;-84
2021/10/15 05:16:22;;;;;;;33.10;13.45;;;13.30;99.90;;;;;;4875735;29;20327;-84
2021/10/15 05:18:48;;;;;;;31.08;14.02;;;13.30;99.90;;;;;;4880373;29;20304;-84
2021/10/15 05:21:15;;;;;;;29.00;14.90;;;13.20;99.90;;;;;;4865529;29;20045;-86
2021/10/15 05:23:41;;;;;;;33.40;15.75;;;13.20;99.90;;;;;;4867870;29;20048;-89
2021/10/15 05:26:07;;;;;;;30.00;15.40;;;13.20;99.90;;;;;;4861682;29;20084;-84
2021/10/15 05:28:33;;;;;;;40.60;21.02;;;13.10;99.90;;;;;;4856766;29;20051;-85
2021/10/15 05:30:59;;;;;;;35.03;16.42;;;13.10;99.90;;;;;;4874464;29;20045;-86
2021/10/15 05:33:25;;;;;;;35.75;17.65;;;13.10;99.90;;;;;;4873808;29;20915;-87
2021/10/15 05:35:51;;;;;;;37.90;17.23;;;13.00;99.90;;;;;;4847835;29;20080;-84
2021/10/15 05:38:19;;;;;;;51.55;18.30;;;12.90;99.90;;;;;;4837560;29;20041;-85
2021/10/15 05:40:51;;;;;;;9.50;4.07;;;12.90;99.90;;;;;;4846974;29;20048;-88
2021/10/15 05:43:17;;;;;;;7.18;2.08;;;12.80;99.90;;;;;;4847402;29;20104;-86
2021/10/15 05:45:46;;;;;;;14.15;1.40;;;12.60;99.90;;;;;;4860844;29;20035;-85
2021/10/15 05:48:11;;;;;;;8.32;1.25;;;12.30;99.90;;;;;;4859412;29;20425;-85
2021/10/15 05:50:41;;;;;;;8.02;1.30;;;12.10;99.90;;;;;;4857222;29;20032;-87
2021/10/15 05:53:16;;;;;;;3.72;0.82;;;11.90;99.90;;;;;;4856796;29;20622;-85
2021/10/15 05:58:53;;;;;;;3.78;1.05;;;11.70;99.90;;;;;;4871667;29;20064;-84
2021/10/15 06:01:25;;;;;;;3.53;0.70;;;11.60;99.90;;;;;;4854011;29;20056;-84
2021/10/15 06:04:32;;;;;;;7.28;1.02;;;11.50;99.90;;;;;;4836546;29;20133;-86
2021/10/15 06:15:04;;;;;;;4.10;0.70;;;11.20;99.90;;;;;;4868756;29;20049;-85
2021/10/15 06:17:30;;;;;;;7.88;0.90;;;11.10;99.90;;;;;;4835066;29;20041;-84
2021/10/15 06:19:56;;;;;;;14.50;1.20;;;11.10;99.90;;;;;;4856687;29;20051;-85
2021/10/15 06:22:26;;;;;;;10.02;1.35;;;11.10;99.90;;;;;;4862862;29;20051;-89
2021/10/15 06:24:53;;;;;;;18.40;1.73;;;11.00;99.90;;;;;;4842503;29;20073;-83
2021/10/15 06:27:20;;;;;;;11.60;1.45;;;11.00;99.90;;;;;;4854119;29;20485;-85
2021/10/15 06:29:46;;;;;;;14.80;1.80;;;10.90;99.90;;;;;;4847945;29;20073;-85
2021/10/15 06:32:14;;;;;;;13.40;1.38;;;10.90;99.90;;;;;;4858630;29;20075;-83
2021/10/15 06:34:46;;;;;;;13.20;1.35;;;10.90;99.90;;;;;;4858632;29;20296;-83
2021/10/15 06:37:27;;;;;;;9.00;1.02;;;10.80;99.90;;;;;;4870712;29;20271;-84
2021/10/15 06:39:59;;;;;;;8.73;1.50;;;10.70;99.90;;;;;;4877651;29;20115;-85
2021/10/15 06:42:30;;;;;;;9.17;1.77;;;10.70;99.90;;;;;;4848442;29;20056;-86
2021/10/15 06:45:28;;;;;;;11.32;1.60;;;10.60;99.90;;;;;;4861731;29;20052;-85
2021/10/15 06:49:00;;;;;;;;;;;;;;;;;;;;;
2021/10/15 06:51:47;;;;;;;10.40;1.50;;;10.50;99.90;;;;;;4796392;29;20083;-85
2021/10/15 06:54:19;;;;;;;20.70;1.45;;;10.50;99.90;;;;;;4793110;29;20046;-86
2021/10/15 07:00:50;;;;;;;12.63;1.55;;;10.40;99.90;;;;;;4909974;23;20060;-85
2021/10/15 07:03:22;;;;;;;13.07;1.77;;;10.40;99.90;;;;;;4860698;29;20052;-85
2021/10/15 07:06:11;;;;;;;9.80;1.17;;;10.40;99.90;;;;;;4811852;29;20181;-86
2021/10/15 07:11:50;;;;;;;20.75;2.00;;;10.30;99.90;;;;;;4886674;23;21145;-84
2021/10/15 07:22:52;;;;;;;;;;;;;;;;;;;;;
2021/10/15 07:26:36;;;;;;;;;;;;;;;;;;;;;
2021/10/15 07:38:47;;;;;;;24.55;2.35;;;10.40;99.90;;;;;;4834562;29;20116;-85
2021/10/15 07:48:21;;;;;;;22.17;2.00;;;10.40;99.90;;;;;;4817778;23;20506;-85
2021/10/15 07:50:59;;;;;;;18.52;1.75;;;10.40;99.90;;;;;;4852392;29;20127;-85
2021/10/15 07:54:06;;;;;;;18.77;2.42;;;10.40;99.90;;;;;;4877965;29;20063;-84
2021/10/15 07:57:33;;;;;;;32.15;2.45;;;10.40;99.90;;;;;;4849774;29;20091;-85
2021/10/15 08:00:20;;;;;;;;;;;;;;;;;;;;;
2021/10/15 08:03:59;;;;;;;21.25;2.00;;;10.40;99.90;;;;;;4825701;29;20001;-85
2021/10/15 08:06:43;;;;;;;17.15;2.03;;;10.40;99.90;;;;;;4867274;29;20492;-85
2021/10/15 08:09:11;;;;;;;17.50;1.90;;;10.50;99.90;;;;;;4879080;23;20051;-85
2021/10/15 08:15:21;;;;;;;34.65;2.25;;;10.50;99.90;;;;;;4873674;29;20053;-86
2021/10/15 08:18:00;;;;;;;11.27;1.75;;;10.60;99.90;;;;;;4849446;29;20049;-85
2021/10/15 08:20:26;;;;;;;14.93;1.95;;;10.50;99.90;;;;;;4848719;29;20550;-85
2021/10/15 08:25:48;;;;;;;16.60;2.00;;;10.60;99.90;;;;;;4868053;29;20048;-85
2021/10/15 08:28:14;;;;;;;21.25;2.53;;;10.60;99.90;;;;;;4862575;29;20170;-84
2021/10/15 08:30:42;;;;;;;14.95;1.80;;;10.60;99.90;;;;;;4878501;29;20568;-84
2021/10/15 08:33:08;;;;;;;21.15;2.00;;;10.60;99.90;;;;;;4847211;29;20089;-86
2021/10/15 08:35:34;;;;;;;10.75;2.30;;;10.70;99.90;;;;;;4883135;29;20116;-86
2021/10/15 08:38:00;;;;;;;15.73;1.92;;;10.70;99.90;;;;;;4843144;29;20087;-84
2021/10/15 08:40:27;;;;;;;19.13;2.33;;;10.70;99.90;;;;;;4867549;29;20056;-84
2021/10/15 08:42:58;;;;;;;15.40;1.45;;;10.80;99.90;;;;;;4860767;29;20415;-85
2021/10/15 08:45:30;;;;;;;15.65;2.22;;;10.80;99.90;;;;;;4864430;29;20582;-86
2021/10/15 08:47:56;;;;;;;28.95;2.50;;;10.80;99.90;;;;;;4895342;29;20114;-84
2021/10/15 08:50:23;;;;;;;18.40;1.88;;;10.90;99.90;;;;;;4858655;29;20091;-84
2021/10/15 08:52:50;;;;;;;28.38;2.60;;;10.90;99.90;;;;;;4863539;29;20479;-87
2021/10/15 08:55:16;;;;;;;22.30;2.50;;;11.00;99.90;;;;;;4892696;29;20123;-85
2021/10/15 08:57:56;;;;;;;23.15;2.17;;;11.00;99.90;;;;;;4899010;29;20039;-85
2021/10/15 09:00:32;;;;;;;15.88;2.03;;;11.00;99.90;;;;;;4890281;29;20044;-84
2021/10/15 09:03:18;;;;;;;21.42;2.80;;;11.00;99.90;;;;;;4878382;29;20042;-84
2021/10/15 09:05:55;;;;;;;12.43;1.88;;;11.10;99.90;;;;;;4890252;29;20119;-85
2021/10/15 09:08:21;;;;;;;22.65;2.90;;;11.10;99.90;;;;;;4892278;29;20047;-84
2021/10/15 09:10:47;;;;;;;20.08;2.35;;;11.10;99.90;;;;;;4890206;29;20119;-84
2021/10/15 09:13:19;;;;;;;19.60;2.47;;;11.20;99.90;;;;;;4876638;29;20132;-84
2021/10/15 09:15:50;;;;;;;19.80;2.22;;;11.20;99.90;;;;;;4909900;29;20046;-85
2021/10/15 09:18:20;;;;;;;20.73;2.88;;;11.20;99.90;;;;;;4894492;23;20760;-85
2021/10/15 09:20:51;;;;;;;16.13;2.17;;;11.20;99.90;;;;;;4861785;29;20040;-86
2021/10/15 09:23:17;;;;;;;22.27;2.90;;;11.20;99.90;;;;;;4879712;29;20080;-86
2021/10/15 09:25:46;;;;;;;27.23;2.15;;;11.20;99.90;;;;;;4847745;29;20071;-84
2021/10/15 09:28:22;;;;;;;16.77;2.10;;;11.10;99.90;;;;;;4866995;29;20044;-84
2021/10/15 09:30:51;;;;;;;16.55;2.22;;;11.10;99.90;;;;;;4839398;29;20056;-85
2021/10/15 09:33:20;;;;;;;11.90;2.33;;;11.10;99.90;;;;;;4883429;29;20044;-86
2021/10/15 09:35:46;;;;;;;18.55;2.10;;;11.10;99.90;;;;;;4879307;29;20044;-84
2021/10/15 09:38:26;;;;;;;17.33;2.53;;;11.20;99.90;;;;;;4852683;29;20045;-85
2021/10/15 09:40:52;;;;;;;23.98;2.90;;;11.20;99.90;;;;;;4880870;29;20185;-87
2021/10/15 09:43:18;;;;;;;16.63;2.75;;;11.30;99.90;;;;;;4869832;29;20037;-84
2021/10/15 09:45:47;;;;;;;17.60;2.13;;;11.30;99.90;;;;;;4866267;29;20099;-87
2021/10/15 09:48:38;;;;;;;15.55;2.10;;;11.40;99.90;;;;;;4865744;29;20528;-86
2021/10/15 09:51:22;;;;;;;17.27;2.10;;;11.40;99.90;;;;;;4867198;29;20070;-87
2021/10/15 09:54:08;;;;;;;17.40;2.42;;;11.40;99.90;;;;;;4846944;29;20092;-88
2021/10/15 09:56:44;;;;;;;21.58;2.63;;;11.50;99.90;;;;;;4857281;29;20037;-84
2021/10/15 09:59:11;;;;;;;26.52;2.88;;;11.50;99.90;;;;;;4886326;29;20044;-86
2021/10/15 10:01:41;;;;;;;27.00;2.92;;;11.50;99.90;;;;;;4868854;29;20040;-85
2021/10/15 10:04:09;;;;;;;25.15;3.22;;;11.60;99.90;;;;;;4881310;29;20173;-85
2021/10/15 10:06:36;;;;;;;21.50;3.00;;;11.60;99.90;;;;;;4853657;29;20051;-86
2021/10/15 10:09:03;;;;;;;25.17;3.45;;;11.60;99.90;;;;;;4871724;29;20054;-86
2021/10/15 10:11:29;;;;;;;25.35;4.43;;;11.60;99.90;;;;;;4867440;29;20152;-86
2021/10/15 10:14:00;;;;;;;28.98;3.42;;;11.60;99.90;;;;;;4858316;29;20056;-87
2021/10/15 10:16:30;;;;;;;20.08;2.83;;;11.70;99.90;;;;;;4843322;29;20499;-85
2021/10/15 10:19:01;;;;;;;30.83;3.10;;;11.60;99.90;;;;;;4875783;29;20049;-83
2021/10/15 10:21:33;;;;;;;26.80;3.67;;;11.50;99.90;;;;;;4870446;29;20044;-84
2021/10/15 10:24:16;;;;;;;32.95;3.30;;;11.50;99.90;;;;;;4865453;29;20036;-85
2021/10/15 10:26:50;;;;;;;;;;;11.50;99.90;;;;;;4879384;29;20040;-85
2021/10/15 10:29:16;;;;;;;19.05;2.85;;;11.50;99.90;;;;;;4882931;29;19930;-84
2021/10/15 10:31:43;;;;;;;25.30;3.28;;;11.60;99.90;;;;;;4868159;29;20064;-85
2021/10/15 10:34:14;;;;;;;27.98;3.88;;;11.60;99.90;;;;;;4884371;29;20482;-85
2021/10/15 10:36:40;;;;;;;19.95;3.03;;;11.70;99.90;;;;;;4866971;29;20230;-84
2021/10/15 10:39:18;;;;;;;20.83;3.28;;;11.80;99.90;;;;;;4854357;29;20092;-87
2021/10/15 10:42:09;;;;;;;32.47;3.47;;;11.70;99.90;;;;;;4877263;29;20041;-85
2021/10/15 10:44:40;;;;;;;29.55;4.00;;;11.70;99.90;;;;;;4859247;29;20288;-85
2021/10/15 10:47:17;;;;;;;27.40;3.65;;;11.60;99.90;;;;;;4866277;29;20145;-84
2021/10/15 10:50:06;;;;;;;25.13;3.15;;;11.60;99.90;;;;;;4885878;29;20127;-84
2021/10/15 10:52:40;;;;;;;23.70;3.53;;;11.60;99.90;;;;;;4883604;29;20119;-85
2021/10/15 10:55:10;;;;;;;26.15;3.20;;;11.60;99.90;;;;;;4883618;29;20056;-87
2021/10/15 10:57:43;;;;;;;25.73;3.90;;;11.70;99.90;;;;;;4853357;29;20045;-86
2021/10/15 11:00:22;;;;;;;22.38;3.10;;;11.70;99.90;;;;;;4857406;29;20089;-85
2021/10/15 11:02:54;;;;;;;20.02;2.65;;;11.80;99.90;;;;;;4886993;29;20045;-84
2021/10/15 11:05:29;;;;;;;20.67;3.30;;;11.80;99.90;;;;;;4876422;29;20100;-87
2021/10/15 11:08:33;;;;;;;22.63;3.00;;;11.80;99.90;;;;;;4865050;29;20041;-85
2021/10/15 11:11:24;;;;;;;21.40;3.72;;;11.90;99.90;;;;;;4872021;29;20044;-86
2021/10/15 11:13:50;;;;;;;13.38;2.72;;;12.00;99.90;;;;;;4869720;29;20131;-83
2021/10/15 11:16:21;;;;;;;21.17;2.78;;;12.00;99.90;;;;;;4883595;29;20053;-84
2021/10/15 11:18:47;;;;;;;9.77;1.58;;;12.10;99.90;;;;;;4849158;29;20049;-84
2021/10/15 11:21:14;;;;;;;10.93;2.22;;;12.10;99.90;;;;;;4864648;29;20496;-87
2021/10/15 11:23:40;;;;;;;12.88;1.75;;;12.10;99.90;;;;;;4855431;29;20052;-84
2021/10/15 11:26:07;;;;;;;20.17;3.00;;;12.10;99.90;;;;;;4902331;29;20144;-86
2021/10/15 11:28:33;;;;;;;18.52;2.08;;;12.10;99.90;;;;;;4851120;29;20100;-85
2021/10/15 11:30:59;;;;;;;16.25;2.75;;;12.10;99.90;;;;;;4871777;29;20055;-83
2021/10/15 11:33:26;;;;;;;25.00;3.42;;;12.00;99.90;;;;;;4867856;29;20404;-84
2021/10/15 11:35:54;;;;;;;16.80;2.90;;;11.90;99.90;;;;;;4867533;29;20048;-87
2021/10/15 11:38:25;;;;;;;16.83;2.60;;;11.80;99.90;;;;;;4884676;29;20048;-82
2021/10/15 11:40:56;;;;;;;20.33;3.13;;;11.80;99.90;;;;;;4878199;29;20044;-85
2021/10/15 11:43:26;;;;;;;22.23;2.17;;;11.80;99.90;;;;;;4880550;29;20502;-85
2021/10/15 11:46:04;;;;;;;19.65;2.67;;;11.80;99.90;;;;;;4866502;29;20044;-84
2021/10/15 11:48:37;;;;;;;28.88;2.92;;;11.80;99.90;;;;;;4850070;29;20100;-85
2021/10/15 11:51:04;;;;;;;19.38;2.88;;;11.90;99.90;;;;;;4863294;29;20048;-84
2021/10/15 11:53:42;;;;;;;20.25;2.88;;;11.90;99.90;;;;;;4877615;29;20071;-84
2021/10/15 11:56:14;;;;;;;14.40;2.47;;;11.90;99.90;;;;;;4865405;29;20175;-85
2021/10/15 11:58:42;;;;;;;18.15;3.03;;;12.00;99.90;;;;;;4882149;29;20052;-83
2021/10/15 12:01:36;;;;;;;14.10;2.75;;;12.10;99.90;;;;;;4864209;29;20044;-87
2021/10/15 12:04:10;;;;;;;14.15;2.42;;;12.20;98.10;;;;;;4881861;29;20500;-85
2021/10/15 12:06:47;;;;;;;16.45;3.00;;;12.20;97.10;;;;;;4866316;29;20067;-87
2021/10/15 12:09:19;;;;;;;19.05;2.72;;;12.20;95.10;;;;;;4878283;29;20073;-86
2021/10/15 12:11:56;;;;;;;11.07;2.35;;;12.10;96.10;;;;;;4866339;29;20067;-83
2021/10/15 12:14:33;;;;;;;12.40;2.85;;;12.10;94.90;;;;;;4886154;29;20076;-83
2021/10/15 12:17:00;;;;;;;21.77;2.47;;;12.20;95.20;;;;;;4869247;29;20096;-86
2021/10/15 12:19:28;;;;;;;18.42;3.17;;;12.30;95.60;;;;;;4869564;29;20104;-84
2021/10/15 12:22:10;;;;;;;18.30;2.47;;;12.30;95.80;;;;;;4871135;29;20052;-84
2021/10/15 12:24:56;;;;;;;20.75;2.90;;;12.40;94.70;;;;;;4872195;29;20506;-85
2021/10/15 12:27:34;;;;;;;18.73;2.83;;;12.60;95.40;;;;;;4880047;29;20093;-85
2021/10/15 12:30:03;;;;;;;19.17;3.25;;;12.60;95.80;;;;;;4886811;29;20049;-86
2021/10/15 12:32:34;;;;;;;21.13;3.03;;;12.70;95.70;;;;;;4870377;29;20037;-84
2021/10/15 12:35:18;;;;;;;17.45;3.08;;;12.60;94.70;;;;;;4873636;29;20100;-87
2021/10/15 12:37:50;;;;;;;22.00;2.83;;;12.50;94.30;;;;;;4870231;29;20116;-84
2021/10/15 12:40:27;;;;;;;17.45;2.83;;;12.40;94.50;;;;;;4883550;29;20099;-87
2021/10/15 12:42:56;;;;;;;21.13;3.75;;;12.30;94.70;;;;;;4869239;29;20066;-86
2021/10/15 12:45:25;;;;;;;19.77;3.30;;;12.40;95.00;;;;;;4900150;29;20048;-85
2021/10/15 12:48:04;;;;;;;26.30;3.38;;;12.40;94.70;;;;;;4882474;29;20087;-88
2021/10/15 12:50:39;;;;;;;20.42;3.10;;;12.50;94.70;;;;;;4869397;29;20060;-82
2021/10/15 12:53:16;;;;;;;19.80;3.38;;;12.50;94.20;;;;;;4888412;29;20036;-85
2021/10/15 12:55:53;;;;;;;19.08;3.17;;;12.50;94.40;;;;;;4887952;29;20116;-87
2021/10/15 12:58:20;;;;;;;21.77;3.20;;;12.50;95.10;;;;;;4886294;29;20118;-85
2021/10/15 13:00:57;;;;;;;19.67;3.03;;;12.40;95.30;;;;;;4871376;29;20041;-86
2021/10/15 13:03:24;;;;;;;24.52;3.42;;;12.30;96.00;;;;;;4871905;29;20041;-84
2021/10/15 13:05:51;;;;;;;14.90;2.72;;;12.30;96.70;;;;;;4864046;29;20064;-85
2021/10/15 13:08:18;;;;;;;20.75;3.30;;;12.30;97.00;;;;;;4867931;29;20234;-83
2021/10/15 13:10:45;;;;;;;17.70;2.80;;;12.30;97.10;;;;;;4880186;29;20041;-84
2021/10/15 13:13:12;;;;;;;21.10;3.35;;;12.30;96.90;;;;;;4843650;29;20055;-83
2021/10/15 13:15:39;;;;;;;24.80;3.45;;;12.40;96.60;;;;;;4878494;29;20444;-86
2021/10/15 13:18:05;;;;;;;19.60;2.40;;;12.40;95.80;;;;;;4866995;29;20415;-83
2021/10/15 13:20:31;;;;;;;19.00;3.05;;;12.60;95.90;;;;;;4865881;29;20056;-84
2021/10/15 13:22:58;;;;;;;13.25;2.35;;;12.70;95.60;;;;;;4835957;29;20071;-86
2021/10/15 13:25:25;;;;;;;14.85;2.80;;;12.70;95.20;;;;;;4866228;29;20483;-87
2021/10/15 13:27:52;;;;;;;21.85;3.28;;;12.70;95.00;;;;;;4864249;29;20037;-83
2021/10/15 13:30:19;;;;;;;13.30;2.53;;;12.70;95.10;;;;;;4855905;29;20048;-88
2021/10/15 13:32:45;;;;;;;12.07;2.00;;;12.60;95.00;;;;;;4870974;29;20766;-85
2021/10/15 13:35:12;;;;;;;10.43;1.83;;;12.50;94.90;;;;;;4888724;29;20293;-85
2021/10/15 13:37:52;;;;;;;16.67;2.25;;;12.50;95.10;;;;;;4889999;29;20512;-84
2021/10/15 13:40:20;;;;;;;11.55;1.85;;;12.40;94.60;;;;;;4873818;29;20080;-84
2021/10/15 13:49:42;;;;;;;11.20;1.90;;;12.30;95.30;;;;;;4880307;29;20037;-83
2021/10/15 13:50:37;;;;;;;12.55;1.98;;;12.30;95.60;;;;;;4879974;29;20068;-84
2021/10/15 13:53:04;;;;;;;13.32;1.65;;;12.20;95.80;;;;;;4888439;29;20047;-84
2021/10/15 13:55:33;;;;;;;14.25;2.03;;;12.20;95.40;;;;;;4869060;29;20037;-83
2021/10/15 13:58:02;;;;;;;14.60;1.70;;;12.20;95.40;;;;;;4857292;29;20463;-85
2021/10/15 14:00:34;;;;;;;10.73;1.83;;;12.30;95.30;;;;;;4882786;29;20067;-84